Time;durP1;ratioP1;P1;durP2;ratioP2;P2;SDS_P1;SDS_P2;PMS_P1;PMS_P2;Temp;Humidity;BMP_temperature;BMP_pressure;BME280_temperature;BME280_humidity;BME280_pressure;Samples;Min_cycle;Max_cycle;Signal;HPM_P1;HPM_P2
2020/12/14 00:01:38;;;;;;;118.13;34.60;;;4.50;99.90;;;;;;4944752;28;20124;-71
2020/12/14 00:04:04;;;;;;;108.85;35.05;;;4.50;99.90;;;;;;4945013;28;20047;-71
2020/12/14 00:06:30;;;;;;;115.68;32.80;;;4.50;99.90;;;;;;4943160;29;20046;-71
2020/12/14 00:08:55;;;;;;;102.88;31.95;;;4.50;99.90;;;;;;4959489;28;20039;-71
2020/12/14 00:11:21;;;;;;;107.47;32.30;;;4.60;99.90;;;;;;4943358;29;20403;-71
2020/12/14 00:13:47;;;;;;;101.93;32.78;;;4.60;99.90;;;;;;4944750;28;20066;-71
2020/12/14 00:16:12;;;;;;;108.60;32.47;;;4.50;99.90;;;;;;4942600;28;20046;-71
2020/12/14 00:18:38;;;;;;;120.50;35.13;;;4.50;99.90;;;;;;4944077;28;20054;-71
2020/12/14 00:21:04;;;;;;;118.63;32.55;;;4.60;99.90;;;;;;4944538;28;20094;-71
2020/12/14 00:23:30;;;;;;;107.07;32.58;;;4.60;99.90;;;;;;4944335;28;20035;-71
2020/12/14 00:25:56;;;;;;;118.93;35.00;;;4.60;99.90;;;;;;4943439;28;20811;-71
2020/12/14 00:28:21;;;;;;;140.95;37.08;;;4.60;99.90;;;;;;4942753;29;20510;-71
2020/12/14 00:30:47;;;;;;;117.90;32.95;;;4.60;99.90;;;;;;4958521;28;20051;-71
2020/12/14 00:33:12;;;;;;;124.50;34.78;;;4.60;99.90;;;;;;4943825;28;20034;-71
2020/12/14 00:35:38;;;;;;;102.60;32.45;;;4.50;99.90;;;;;;4943255;28;20819;-71
2020/12/14 00:38:04;;;;;;;129.75;33.08;;;4.50;99.90;;;;;;4943838;28;20054;-71
2020/12/14 00:40:29;;;;;;;141.05;37.22;;;4.40;99.90;;;;;;4958556;28;20047;-71
2020/12/14 00:42:56;;;;;;;129.38;34.65;;;4.40;99.90;;;;;;4944184;28;20027;-71
2020/12/14 00:45:22;;;;;;;137.23;34.15;;;4.40;99.90;;;;;;4941578;29;20039;-71
2020/12/14 00:47:48;;;;;;;118.80;34.90;;;4.40;99.90;;;;;;4943194;28;20089;-71
2020/12/14 00:50:14;;;;;;;138.07;34.83;;;4.40;99.90;;;;;;4943855;28;20122;-71
2020/12/14 00:52:39;;;;;;;146.57;34.65;;;4.40;99.90;;;;;;4958546;28;20042;-72
2020/12/14 00:55:05;;;;;;;109.28;32.58;;;4.40;99.90;;;;;;4957601;28;20059;-72
2020/12/14 00:57:31;;;;;;;146.25;33.90;;;4.50;99.90;;;;;;4943193;28;20502;-71
2020/12/14 00:59:57;;;;;;;121.25;33.42;;;4.50;99.90;;;;;;4943333;28;20038;-72
2020/12/14 01:02:24;;;;;;;114.93;33.38;;;4.50;99.90;;;;;;4945322;28;20035;-71
2020/12/14 01:04:51;;;;;;;105.65;32.38;;;4.50;99.90;;;;;;4957785;28;20050;-72
2020/12/14 01:07:17;;;;;;;190.73;32.53;;;4.50;99.90;;;;;;4942602;28;20484;-72
2020/12/14 01:09:43;;;;;;;133.27;30.15;;;4.50;99.90;;;;;;4958182;28;20027;-71
2020/12/14 01:12:09;;;;;;;141.75;31.02;;;4.40;99.90;;;;;;4943303;28;20043;-72
2020/12/14 01:14:34;;;;;;;183.23;30.60;;;4.40;99.90;;;;;;4957795;28;20023;-72
2020/12/14 01:17:00;;;;;;;178.98;31.58;;;4.40;99.90;;;;;;4956218;28;20051;-72
2020/12/14 01:19:26;;;;;;;121.93;31.92;;;4.40;99.90;;;;;;4943171;28;20727;-72
2020/12/14 01:21:51;;;;;;;93.68;30.80;;;4.40;99.90;;;;;;4926005;29;20129;-72
2020/12/14 01:24:17;;;;;;;229.90;31.20;;;4.40;99.90;;;;;;4942654;28;20484;-72
2020/12/14 01:26:42;;;;;;;116.72;31.75;;;4.30;99.90;;;;;;4942111;28;20035;-72
2020/12/14 01:29:08;;;;;;;80.28;29.25;;;4.40;99.90;;;;;;4942130;28;20035;-72
2020/12/14 01:31:34;;;;;;;110.57;30.83;;;4.40;99.90;;;;;;4943045;28;20051;-72
2020/12/14 01:33:59;;;;;;;113.15;31.77;;;4.40;99.90;;;;;;4943027;28;20101;-72
2020/12/14 01:36:25;;;;;;;110.90;30.20;;;4.40;99.90;;;;;;4956081;28;20126;-72
2020/12/14 01:38:52;;;;;;;75.38;29.15;;;4.40;99.90;;;;;;4942903;28;20110;-72
2020/12/14 01:41:18;;;;;;;115.82;28.70;;;4.40;99.90;;;;;;4957546;28;20825;-73
2020/12/14 01:43:43;;;;;;;115.05;28.88;;;4.40;99.90;;;;;;4942219;29;20035;-72
2020/12/14 01:46:09;;;;;;;142.07;27.92;;;4.40;99.90;;;;;;4942962;28;20027;-72
2020/12/14 01:48:35;;;;;;;126.70;29.05;;;4.40;99.90;;;;;;4943091;28;20635;-72
2020/12/14 01:51:01;;;;;;;205.55;28.40;;;4.40;99.90;;;;;;4943360;28;20039;-72
2020/12/14 01:53:30;;;;;;;135.73;28.63;;;4.40;99.90;;;;;;4957875;28;20821;-72
2020/12/14 01:55:56;;;;;;;175.30;28.02;;;4.50;99.90;;;;;;4942565;28;20335;-72
2020/12/14 01:58:22;;;;;;;75.70;26.08;;;4.40;99.90;;;;;;4941372;29;20510;-72
2020/12/14 02:00:49;;;;;;;138.82;28.77;;;4.40;99.90;;;;;;4941966;28;20039;-72
2020/12/14 02:03:14;;;;;;;147.00;29.25;;;4.40;99.90;;;;;;4942400;29;20035;-71
2020/12/14 02:05:40;;;;;;;149.65;27.90;;;4.30;99.90;;;;;;4939666;29;20039;-72
2020/12/14 02:08:08;;;;;;;134.60;28.90;;;4.20;99.90;;;;;;4941611;28;20544;-72
2020/12/14 02:10:35;;;;;;;73.28;27.35;;;4.30;99.90;;;;;;4941844;28;20068;-72
2020/12/14 02:13:00;;;;;;;102.15;28.25;;;4.20;99.90;;;;;;4941785;28;20616;-72
2020/12/14 02:15:26;;;;;;;130.80;28.65;;;4.20;99.90;;;;;;4941446;28;20033;-72
2020/12/14 02:17:52;;;;;;;108.25;28.40;;;4.30;99.90;;;;;;4941582;28;20065;-72
2020/12/14 02:20:18;;;;;;;92.05;27.88;;;4.20;99.90;;;;;;4941870;29;20925;-72
2020/12/14 02:22:44;;;;;;;70.65;26.95;;;4.30;99.90;;;;;;4942411;28;20059;-72
2020/12/14 02:25:09;;;;;;;155.95;29.50;;;4.20;99.90;;;;;;4941539;28;20825;-72
2020/12/14 02:27:36;;;;;;;110.22;29.42;;;4.30;99.90;;;;;;4942129;28;20079;-72
2020/12/14 02:30:04;;;;;;;70.40;27.60;;;4.30;99.90;;;;;;4942006;28;20110;-72
2020/12/14 02:32:30;;;;;;;74.53;27.15;;;4.30;99.90;;;;;;4942212;28;20031;-72
2020/12/14 02:34:57;;;;;;;62.03;25.55;;;4.30;99.90;;;;;;4941852;28;20025;-72
2020/12/14 02:37:25;;;;;;;68.38;26.67;;;4.30;99.90;;;;;;4940914;29;20043;-72
2020/12/14 02:39:51;;;;;;;67.80;26.00;;;4.30;99.90;;;;;;4942328;28;20039;-72
2020/12/14 02:42:19;;;;;;;72.03;26.77;;;4.30;99.90;;;;;;4956581;28;20039;-72
2020/12/14 02:44:46;;;;;;;80.63;25.88;;;4.40;99.90;;;;;;4956593;28;20109;-72
2020/12/14 02:47:12;;;;;;;63.47;26.65;;;4.30;99.90;;;;;;4955421;28;20039;-72
2020/12/14 02:49:38;;;;;;;64.35;25.63;;;4.30;99.90;;;;;;4941426;28;20407;-72
2020/12/14 02:52:06;;;;;;;67.38;27.02;;;4.20;99.90;;;;;;4941799;28;20031;-72
2020/12/14 02:54:32;;;;;;;62.63;25.40;;;4.30;99.90;;;;;;4956138;28;20047;-72
2020/12/14 02:56:58;;;;;;;88.63;27.30;;;4.30;99.90;;;;;;4940928;28;20036;-71
2020/12/14 02:59:24;;;;;;;67.15;27.23;;;4.30;99.90;;;;;;4956438;28;20039;-72
2020/12/14 03:01:50;;;;;;;57.15;25.65;;;4.30;99.90;;;;;;4941639;28;20035;-71
2020/12/14 03:04:17;;;;;;;79.88;27.55;;;4.30;99.90;;;;;;4941454;28;20031;-72
2020/12/14 03:06:44;;;;;;;74.28;25.20;;;4.20;99.90;;;;;;4955482;28;20031;-72
2020/12/14 03:09:11;;;;;;;69.10;26.13;;;4.20;99.90;;;;;;4963199;28;20070;-72
2020/12/14 03:11:38;;;;;;;52.67;24.55;;;4.20;99.90;;;;;;4925851;29;20031;-71
2020/12/14 03:14:05;;;;;;;59.00;26.65;;;4.20;99.90;;;;;;4960202;28;20706;-72
2020/12/14 03:16:30;;;;;;;60.90;25.55;;;4.20;99.90;;;;;;4944495;29;20043;-72
2020/12/14 03:18:56;;;;;;;55.50;25.25;;;4.20;99.90;;;;;;4945648;28;20058;-72
2020/12/14 03:21:22;;;;;;;70.50;26.60;;;4.30;99.90;;;;;;4944664;29;20039;-72
2020/12/14 03:23:47;;;;;;;57.25;24.95;;;4.20;99.90;;;;;;4945729;28;20035;-71
2020/12/14 03:26:17;;;;;;;67.75;25.52;;;4.10;99.90;;;;;;4944511;28;20039;-72
2020/12/14 03:28:43;;;;;;;53.67;24.90;;;4.10;99.90;;;;;;4945782;28;20626;-72
2020/12/14 03:31:09;;;;;;;56.88;24.83;;;4.10;99.90;;;;;;4945482;28;20059;-72
2020/12/14 03:33:36;;;;;;;58.53;25.95;;;4.10;99.90;;;;;;4959562;28;20063;-72
2020/12/14 03:36:02;;;;;;;62.47;25.35;;;4.10;99.90;;;;;;4958805;28;20046;-72
2020/12/14 03:38:28;;;;;;;63.30;26.65;;;4.10;99.90;;;;;;4945244;28;20039;-72
2020/12/14 03:40:53;;;;;;;67.65;25.73;;;4.00;99.90;;;;;;4945133;28;20039;-71
2020/12/14 03:43:19;;;;;;;64.70;27.67;;;4.00;99.90;;;;;;4945249;29;20086;-72
2020/12/14 03:45:45;;;;;;;60.75;25.10;;;4.00;99.90;;;;;;4944727;28;20063;-72
2020/12/14 03:48:10;;;;;;;59.55;25.40;;;4.00;99.90;;;;;;4944714;28;20067;-72
2020/12/14 03:50:42;;;;;;;54.03;23.98;;;4.00;99.90;;;;;;4944870;28;20033;-72
2020/12/14 03:53:09;;;;;;;65.10;25.17;;;4.00;99.90;;;;;;4944765;28;20038;-72
2020/12/14 03:55:35;;;;;;;56.60;25.70;;;3.90;99.90;;;;;;4943506;28;20027;-71
2020/12/14 03:58:00;;;;;;;61.35;25.30;;;3.90;99.90;;;;;;4944470;28;20043;-71
2020/12/14 04:00:26;;;;;;;71.40;26.73;;;3.90;99.90;;;;;;4942807;29;20050;-71
2020/12/14 04:02:52;;;;;;;77.22;27.67;;;3.90;99.90;;;;;;4959508;28;20027;-71
2020/12/14 04:05:17;;;;;;;67.28;25.80;;;3.90;99.90;;;;;;4943816;28;20027;-72
2020/12/14 04:07:43;;;;;;;64.82;26.50;;;3.90;99.90;;;;;;4959034;28;20039;-71
2020/12/14 04:10:09;;;;;;;55.95;25.77;;;3.90;99.90;;;;;;4944272;28;20145;-71
2020/12/14 04:12:34;;;;;;;65.03;26.75;;;3.90;99.90;;;;;;4944292;28;20050;-71
2020/12/14 04:15:00;;;;;;;55.13;25.17;;;3.90;99.90;;;;;;4943628;28;20034;-71
2020/12/14 04:17:26;;;;;;;53.38;24.52;;;3.90;99.90;;;;;;4944193;28;20074;-72
2020/12/14 04:19:51;;;;;;;55.50;25.25;;;3.80;99.90;;;;;;4942278;29;20130;-71
2020/12/14 04:22:17;;;;;;;54.17;24.17;;;3.80;99.90;;;;;;4943165;28;20035;-72
2020/12/14 04:24:43;;;;;;;54.08;24.20;;;3.80;99.90;;;;;;4944056;29;20078;-72
2020/12/14 04:27:08;;;;;;;55.78;23.80;;;3.80;99.90;;;;;;4943172;28;20042;-72
2020/12/14 04:29:34;;;;;;;59.20;23.23;;;3.80;99.90;;;;;;4944111;28;20037;-72
2020/12/14 04:32:00;;;;;;;50.85;22.77;;;3.80;99.90;;;;;;4943188;28;20279;-72
2020/12/14 04:34:25;;;;;;;53.17;24.73;;;3.80;99.90;;;;;;4957806;28;20039;-73
2020/12/14 04:36:51;;;;;;;43.22;21.63;;;3.80;99.90;;;;;;4942592;28;20027;-72
2020/12/14 04:39:18;;;;;;;53.53;22.45;;;3.80;99.90;;;;;;4943127;28;20031;-72
2020/12/14 04:41:44;;;;;;;49.38;22.23;;;3.80;99.90;;;;;;4943327;28;20027;-72
2020/12/14 04:44:11;;;;;;;54.50;22.63;;;3.80;99.90;;;;;;4943204;28;20699;-71
2020/12/14 04:46:37;;;;;;;47.75;22.90;;;3.80;99.90;;;;;;4956959;28;20043;-72
2020/12/14 04:49:06;;;;;;;43.95;20.65;;;3.80;99.90;;;;;;4942931;29;20046;-72
2020/12/14 04:51:38;;;;;;;48.22;21.95;;;3.70;99.90;;;;;;4943039;28;20079;-71
2020/12/14 04:54:05;;;;;;;47.97;21.55;;;3.70;99.90;;;;;;4941614;29;20039;-72
2020/12/14 04:56:38;;;;;;;44.25;20.83;;;3.70;99.90;;;;;;4942147;28;20478;-71
2020/12/14 04:59:04;;;;;;;46.83;21.67;;;3.70;99.90;;;;;;4942859;28;20106;-71
2020/12/14 05:01:29;;;;;;;52.17;22.33;;;3.70;99.90;;;;;;4942786;28;20043;-71
2020/12/14 05:03:55;;;;;;;50.55;22.20;;;3.70;99.90;;;;;;4940955;29;20039;-71
2020/12/14 05:06:21;;;;;;;44.50;21.52;;;3.60;99.90;;;;;;4941544;28;20035;-71
2020/12/14 05:08:47;;;;;;;47.17;22.40;;;3.70;99.90;;;;;;4942717;29;20035;-71
2020/12/14 05:11:12;;;;;;;43.35;19.77;;;3.60;99.90;;;;;;4942444;28;20027;-72
2020/12/14 05:13:38;;;;;;;46.65;21.83;;;3.60;99.90;;;;;;4942486;28;20059;-72
2020/12/14 05:16:04;;;;;;;48.90;21.45;;;3.50;99.90;;;;;;4941528;28;20146;-71
2020/12/14 05:18:30;;;;;;;41.17;20.50;;;3.50;99.90;;;;;;4940829;29;20093;-71
2020/12/14 05:21:01;;;;;;;38.63;20.27;;;3.40;99.90;;;;;;4942000;29;20043;-71
2020/12/14 05:23:28;;;;;;;41.92;19.85;;;3.40;99.90;;;;;;4941355;29;20047;-71
2020/12/14 05:26:06;;;;;;;43.80;20.92;;;3.30;99.90;;;;;;4941684;28;20694;-71
2020/12/14 05:28:32;;;;;;;36.63;18.88;;;3.20;99.90;;;;;;4941935;28;20035;-71
2020/12/14 05:30:59;;;;;;;41.10;20.23;;;3.20;99.90;;;;;;4942279;29;20035;-71
2020/12/14 05:33:26;;;;;;;44.92;20.35;;;3.20;99.90;;;;;;4956541;28;20053;-71
2020/12/14 05:35:52;;;;;;;45.13;21.13;;;3.20;99.90;;;;;;4956019;28;20039;-71
2020/12/14 05:38:23;;;;;;;43.80;20.52;;;3.20;99.90;;;;;;4924095;29;20031;-71
2020/12/14 05:40:57;;;;;;;45.60;21.15;;;3.20;99.90;;;;;;4956601;28;20035;-71
2020/12/14 05:43:27;;;;;;;46.97;21.77;;;3.10;99.90;;;;;;4940177;29;20039;-72
2020/12/14 05:45:55;;;;;;;43.67;20.80;;;3.10;99.90;;;;;;4941017;28;20032;-72
2020/12/14 05:48:32;;;;;;;39.70;19.75;;;3.00;99.90;;;;;;4955549;28;20042;-72
2020/12/14 05:51:06;;;;;;;42.90;21.27;;;3.00;99.90;;;;;;4941790;28;20141;-72
2020/12/14 05:53:40;;;;;;;40.75;20.52;;;2.90;99.90;;;;;;4941873;28;20651;-72
2020/12/14 05:56:07;;;;;;;36.42;18.90;;;2.90;99.90;;;;;;4956163;28;20031;-72
2020/12/14 05:58:35;;;;;;;43.63;20.85;;;2.80;99.90;;;;;;4942599;28;20054;-72
2020/12/14 06:01:02;;;;;;;38.05;19.33;;;2.80;99.90;;;;;;4957355;28;20035;-72
2020/12/14 06:03:28;;;;;;;40.78;19.17;;;2.80;99.90;;;;;;4942596;29;20098;-72
2020/12/14 06:06:05;;;;;;;36.35;18.20;;;2.80;99.90;;;;;;4956464;28;20046;-72
2020/12/14 06:08:46;;;;;;;37.05;18.33;;;2.70;99.90;;;;;;4942398;28;20039;-72
2020/12/14 06:11:16;;;;;;;38.83;19.75;;;2.60;99.90;;;;;;4942105;28;20045;-72
2020/12/14 06:13:48;;;;;;;44.08;21.83;;;2.60;99.90;;;;;;4942178;28;20045;-71
2020/12/14 06:16:44;;;;;;;38.80;19.70;;;2.70;99.90;;;;;;4940752;28;20511;-71
2020/12/14 06:19:10;;;;;;;40.78;20.70;;;2.60;99.90;;;;;;4938223;29;20698;-72
2020/12/14 06:22:09;;;;;;;40.28;20.23;;;2.60;99.90;;;;;;4941449;28;20031;-71
2020/12/14 06:24:37;;;;;;;40.13;20.35;;;2.60;99.90;;;;;;4915282;29;20043;-72
2020/12/14 06:27:08;;;;;;;38.33;18.33;;;2.50;99.90;;;;;;4940355;28;20027;-72
2020/12/14 06:29:35;;;;;;;36.83;18.23;;;2.60;99.90;;;;;;4941066;28;20039;-72
2020/12/14 06:32:02;;;;;;;39.17;19.55;;;2.60;99.90;;;;;;4940981;29;20045;-68
2020/12/14 06:34:34;;;;;;;34.05;18.17;;;2.60;99.90;;;;;;4941065;29;20114;-68
2020/12/14 06:37:01;;;;;;;36.63;18.90;;;2.50;99.90;;;;;;4940013;28;20035;-68
2020/12/14 06:39:37;;;;;;;36.08;18.00;;;2.50;99.90;;;;;;4941202;28;20041;-68
2020/12/14 06:42:09;;;;;;;39.67;19.90;;;2.50;99.90;;;;;;4956376;28;20467;-68
2020/12/14 06:44:55;;;;;;;33.47;18.25;;;2.50;99.90;;;;;;4941758;28;20754;-68
2020/12/14 06:47:20;;;;;;;;;;;2.50;99.90;;;;;;4933830;29;20105;-68
2020/12/14 06:49:47;;;;;;;33.30;17.15;;;2.50;99.90;;;;;;4941791;29;19918;-70
2020/12/14 06:52:13;;;;;;;32.80;17.50;;;2.50;99.90;;;;;;4956232;28;20128;-68
2020/12/14 06:54:43;;;;;;;33.85;17.20;;;2.40;99.90;;;;;;4941714;28;20082;-70
2020/12/14 06:57:11;;;;;;;29.33;16.42;;;2.40;99.90;;;;;;4955920;28;20067;-69
2020/12/14 06:59:37;;;;;;;33.83;17.30;;;2.40;99.90;;;;;;4942164;28;20512;-69
2020/12/14 07:02:07;;;;;;;35.38;19.00;;;2.40;99.90;;;;;;4940439;29;20067;-69
2020/12/14 07:04:33;;;;;;;33.97;18.02;;;2.40;99.90;;;;;;4941384;29;20086;-69
2020/12/14 07:07:04;;;;;;;45.17;22.20;;;2.40;99.90;;;;;;4941983;28;20039;-69
2020/12/14 07:09:32;;;;;;;37.40;19.85;;;2.40;99.90;;;;;;4941554;29;20031;-69
2020/12/14 07:12:10;;;;;;;43.42;20.40;;;2.40;99.90;;;;;;4941095;28;20035;-68
2020/12/14 07:14:35;;;;;;;37.67;20.45;;;2.50;99.90;;;;;;4935449;29;20855;-68
2020/12/14 07:17:16;;;;;;;40.00;20.45;;;2.50;99.90;;;;;;4939774;28;20027;-68
2020/12/14 07:19:49;;;;;;;40.65;19.38;;;2.60;99.90;;;;;;4954950;28;20035;-68
2020/12/14 07:22:18;;;;;;;43.50;19.85;;;2.70;99.90;;;;;;4955750;28;20031;-68
2020/12/14 07:24:48;;;;;;;38.17;18.83;;;2.80;99.90;;;;;;4941017;28;20038;-68
2020/12/14 07:27:14;;;;;;;45.58;20.25;;;2.80;99.90;;;;;;4940430;28;20091;-71
2020/12/14 07:29:40;;;;;;;39.78;20.77;;;2.80;99.90;;;;;;4941435;29;20031;-71
2020/12/14 07:32:06;;;;;;;44.88;20.70;;;2.80;99.90;;;;;;4941943;29;20571;-72
2020/12/14 07:34:32;;;;;;;43.53;20.92;;;2.80;99.90;;;;;;4956240;28;20035;-72
2020/12/14 07:36:58;;;;;;;44.28;20.33;;;2.80;99.90;;;;;;4940902;28;20142;-72
2020/12/14 07:39:24;;;;;;;41.05;19.75;;;2.80;99.90;;;;;;4940119;28;20045;-72
2020/12/14 07:41:49;;;;;;;42.90;20.50;;;2.80;99.90;;;;;;4941477;29;20415;-72
2020/12/14 07:44:15;;;;;;;41.00;20.35;;;2.80;99.90;;;;;;4941393;29;20042;-72
2020/12/14 07:46:42;;;;;;;42.88;21.70;;;2.90;99.90;;;;;;4955033;28;20119;-72
2020/12/14 07:49:13;;;;;;;43.15;20.50;;;3.00;99.90;;;;;;4941615;28;20503;-72
2020/12/14 07:51:44;;;;;;;43.70;21.35;;;3.10;99.90;;;;;;4941503;28;20738;-72
2020/12/14 07:54:14;;;;;;;44.55;21.92;;;3.30;99.90;;;;;;4941715;28;20082;-72
2020/12/14 07:56:40;;;;;;;43.50;20.75;;;3.30;99.90;;;;;;4938866;28;20463;-72
2020/12/14 07:59:17;;;;;;;41.08;20.65;;;3.30;99.90;;;;;;4944724;28;20069;-72
2020/12/14 08:01:44;;;;;;;38.88;20.20;;;3.30;99.90;;;;;;4939911;29;20121;-71
2020/12/14 08:04:09;;;;;;;45.70;22.15;;;3.30;99.90;;;;;;4944554;28;20652;-72
2020/12/14 08:06:38;;;;;;;42.08;20.67;;;3.30;99.90;;;;;;4943626;29;20189;-72
2020/12/14 08:09:06;;;;;;;37.70;19.85;;;3.40;99.90;;;;;;4958764;28;20046;-70
2020/12/14 08:11:32;;;;;;;38.88;19.55;;;3.40;99.90;;;;;;4944405;29;20043;-72
2020/12/14 08:13:58;;;;;;;35.75;19.83;;;3.40;99.90;;;;;;4943301;29;20055;-72
2020/12/14 08:16:24;;;;;;;40.13;19.80;;;3.50;99.90;;;;;;4957494;28;20039;-72
2020/12/14 08:18:56;;;;;;;41.47;19.73;;;3.60;99.90;;;;;;4943959;28;20043;-72
2020/12/14 08:21:26;;;;;;;34.60;18.00;;;3.70;99.90;;;;;;4942493;29;20079;-71
2020/12/14 08:23:53;;;;;;;33.10;17.60;;;3.70;99.90;;;;;;4944075;28;20078;-72
2020/12/14 08:26:30;;;;;;;35.83;17.75;;;3.80;99.90;;;;;;4942835;28;20114;-72
2020/12/14 08:28:58;;;;;;;31.77;17.27;;;3.90;99.90;;;;;;4943809;28;20038;-72
2020/12/14 08:31:23;;;;;;;35.70;17.88;;;3.90;99.90;;;;;;4956111;28;20134;-72
2020/12/14 08:33:51;;;;;;;31.40;17.00;;;3.90;99.90;;;;;;4943605;28;20045;-72
2020/12/14 08:36:17;;;;;;;30.17;15.73;;;4.00;99.90;;;;;;4941768;29;20034;-71
2020/12/14 08:38:44;;;;;;;29.23;15.90;;;4.00;99.90;;;;;;4957571;28;20038;-72
2020/12/14 08:41:11;;;;;;;29.95;15.32;;;4.10;99.90;;;;;;4942482;28;20066;-72
2020/12/14 08:43:37;;;;;;;31.58;16.75;;;4.10;99.90;;;;;;4942606;29;20042;-72
2020/12/14 08:46:17;;;;;;;30.33;15.68;;;4.10;99.90;;;;;;4941598;28;20031;-71
2020/12/14 08:48:49;;;;;;;32.85;16.60;;;4.10;99.90;;;;;;4937207;29;20074;-73
2020/12/14 08:51:21;;;;;;;31.92;16.05;;;4.10;99.90;;;;;;4943405;28;20062;-72
2020/12/14 08:53:49;;;;;;;23.48;13.82;;;4.20;99.90;;;;;;4943206;28;20130;-72
2020/12/14 08:56:18;;;;;;;29.10;14.73;;;4.20;99.90;;;;;;4956273;28;20106;-72
2020/12/14 08:58:49;;;;;;;28.23;15.00;;;4.30;99.90;;;;;;4942596;28;20042;-73
2020/12/14 09:01:15;;;;;;;28.55;14.02;;;4.40;99.90;;;;;;4956875;28;20052;-73
2020/12/14 09:03:50;;;;;;;26.48;14.43;;;4.50;99.90;;;;;;4943386;28;20045;-72
2020/12/14 09:06:31;;;;;;;30.55;14.10;;;4.60;99.90;;;;;;4942144;28;20034;-72
2020/12/14 09:09:05;;;;;;;23.90;13.55;;;4.60;99.90;;;;;;4959781;28;20039;-72
2020/12/14 09:11:32;;;;;;;24.27;14.27;;;4.60;99.90;;;;;;4957639;28;20407;-72
2020/12/14 09:13:59;;;;;;;24.02;12.45;;;4.60;99.90;;;;;;4943204;28;20134;-72
2020/12/14 09:16:26;;;;;;;23.58;13.13;;;4.60;99.90;;;;;;4941633;28;20083;-72
2020/12/14 09:18:52;;;;;;;24.33;13.52;;;4.70;99.90;;;;;;4938341;28;20612;-72
2020/12/14 09:21:19;;;;;;;23.20;12.45;;;4.70;99.90;;;;;;4957560;28;20053;-73
2020/12/14 09:24:05;;;;;;;26.13;12.43;;;4.80;99.90;;;;;;4943168;29;20063;-73
2020/12/14 09:26:31;;;;;;;25.33;12.50;;;4.80;99.90;;;;;;4941817;28;20035;-74
2020/12/14 09:28:56;;;;;;;24.40;13.02;;;4.90;99.90;;;;;;4942757;29;20042;-72
2020/12/14 09:31:22;;;;;;;25.40;12.02;;;5.10;99.90;;;;;;4956088;28;20055;-72
2020/12/14 09:33:48;;;;;;;23.35;12.32;;;5.10;99.90;;;;;;4957305;28;20102;-72
2020/12/14 09:36:15;;;;;;;21.75;11.80;;;5.10;99.90;;;;;;4956358;28;20031;-73
2020/12/14 09:38:41;;;;;;;20.95;11.77;;;5.20;99.90;;;;;;4956886;28;20039;-69
2020/12/14 09:41:06;;;;;;;21.30;11.18;;;5.20;99.90;;;;;;4942798;28;20042;-70
2020/12/14 09:43:32;;;;;;;17.90;9.73;;;5.30;99.90;;;;;;4942659;29;20041;-72
2020/12/14 09:45:59;;;;;;;21.95;11.23;;;5.20;99.90;;;;;;4941592;29;20123;-72
2020/12/14 09:48:25;;;;;;;21.10;11.55;;;5.40;99.90;;;;;;4941886;28;20042;-72
2020/12/14 09:50:51;;;;;;;20.90;10.60;;;5.40;99.90;;;;;;4956662;28;20043;-70
2020/12/14 09:53:16;;;;;;;20.75;11.32;;;5.40;99.90;;;;;;4956425;28;20035;-71
2020/12/14 09:55:43;;;;;;;20.15;10.00;;;5.50;99.90;;;;;;4956293;28;20082;-72
2020/12/14 09:58:10;;;;;;;18.98;10.25;;;5.60;99.90;;;;;;4934031;28;20119;-72
2020/12/14 10:00:35;;;;;;;23.38;9.95;;;5.70;99.90;;;;;;4940951;28;20812;-72
2020/12/14 10:03:01;;;;;;;22.13;10.68;;;5.70;99.90;;;;;;4941994;28;20042;-72
2020/12/14 10:05:26;;;;;;;18.40;9.80;;;5.70;99.90;;;;;;4941188;28;20515;-72
2020/12/14 10:07:52;;;;;;;20.35;11.43;;;5.80;99.90;;;;;;4956218;28;20045;-72
2020/12/14 10:10:18;;;;;;;17.27;9.63;;;5.80;99.90;;;;;;4941727;29;20031;-72
2020/12/14 10:12:43;;;;;;;19.77;10.27;;;5.80;99.90;;;;;;4941605;29;20078;-71
2020/12/14 10:15:09;;;;;;;21.60;9.82;;;5.80;99.90;;;;;;4940766;28;20046;-72
2020/12/14 10:17:38;;;;;;;16.55;9.57;;;5.80;99.90;;;;;;4941157;28;20075;-72
2020/12/14 10:20:05;;;;;;;17.08;9.77;;;5.80;99.90;;;;;;4955825;28;20503;-72
2020/12/14 10:22:32;;;;;;;17.10;10.00;;;5.90;99.90;;;;;;4939803;29;20123;-75
2020/12/14 10:24:57;;;;;;;18.80;9.98;;;6.00;99.90;;;;;;4941188;28;20072;-73
2020/12/14 10:27:23;;;;;;;19.23;10.40;;;6.00;99.90;;;;;;4941699;29;20027;-72
2020/12/14 10:29:49;;;;;;;17.77;9.95;;;6.10;99.90;;;;;;4942136;29;20050;-72
2020/12/14 10:32:15;;;;;;;18.98;10.10;;;6.10;99.90;;;;;;4942234;28;20175;-72
2020/12/14 10:34:40;;;;;;;19.23;9.75;;;6.20;99.90;;;;;;4942404;28;20142;-74
2020/12/14 10:37:06;;;;;;;19.30;9.60;;;6.20;99.90;;;;;;4939921;29;20027;-72
2020/12/14 10:39:32;;;;;;;16.13;8.93;;;6.30;99.90;;;;;;4941343;28;20055;-70
2020/12/14 10:41:58;;;;;;;20.55;9.98;;;6.40;99.90;;;;;;4940906;28;20782;-69
2020/12/14 10:44:23;;;;;;;19.33;9.07;;;6.70;99.90;;;;;;4941115;28;20457;-69
2020/12/14 10:46:49;;;;;;;18.45;9.07;;;6.80;99.90;;;;;;4939116;29;20470;-70
2020/12/14 10:49:15;;;;;;;19.02;9.38;;;7.00;99.90;;;;;;4940042;28;20066;-74
2020/12/14 10:51:47;;;;;;;16.63;9.30;;;7.10;99.90;;;;;;4940333;29;20027;-71
2020/12/14 10:54:13;;;;;;;17.30;8.77;;;7.10;99.90;;;;;;4939892;28;20062;-71
2020/12/14 10:56:38;;;;;;;20.85;10.15;;;7.30;99.90;;;;;;4954002;28;20046;-70
2020/12/14 10:59:04;;;;;;;23.88;11.20;;;7.30;99.90;;;;;;4940085;29;20039;-72
2020/12/14 11:01:30;;;;;;;15.77;8.30;;;7.20;99.90;;;;;;4954230;28;20035;-70
2020/12/14 11:03:55;;;;;;;13.73;7.57;;;7.40;99.90;;;;;;4938803;28;20031;-70
2020/12/14 11:06:21;;;;;;;16.92;8.05;;;7.60;99.90;;;;;;4945290;28;20040;-70
2020/12/14 11:08:47;;;;;;;14.48;7.80;;;7.80;99.90;;;;;;4939771;29;20113;-70
2020/12/14 11:11:14;;;;;;;13.32;7.30;;;7.70;99.90;;;;;;4940330;29;20055;-71
2020/12/14 11:13:39;;;;;;;14.10;7.70;;;7.80;99.90;;;;;;4941211;29;20042;-70
2020/12/14 11:16:05;;;;;;;14.40;7.78;;;7.90;99.90;;;;;;4939351;28;20031;-71
2020/12/14 11:18:31;;;;;;;15.68;7.70;;;8.10;99.90;;;;;;4940653;29;20039;-70
2020/12/14 11:20:56;;;;;;;16.40;8.02;;;8.20;99.90;;;;;;4939004;29;20037;-70
2020/12/14 11:23:22;;;;;;;13.90;7.30;;;8.10;99.90;;;;;;4940942;28;20141;-70
2020/12/14 11:25:48;;;;;;;11.65;7.15;;;8.00;99.90;;;;;;4940625;28;20031;-69
2020/12/14 11:28:13;;;;;;;14.10;8.00;;;7.90;99.90;;;;;;4941208;29;20050;-69
2020/12/14 11:30:39;;;;;;;15.48;7.93;;;7.90;99.90;;;;;;4940809;29;20075;-70
2020/12/14 11:33:05;;;;;;;13.27;7.40;;;7.90;99.90;;;;;;4941257;28;20444;-70
2020/12/14 11:35:30;;;;;;;16.23;7.80;;;7.80;99.90;;;;;;4943590;29;20742;-70
2020/12/14 11:37:56;;;;;;;13.02;7.65;;;7.80;99.90;;;;;;4944184;29;20766;-70
2020/12/14 11:40:22;;;;;;;13.80;7.53;;;7.80;99.90;;;;;;4944143;28;20066;-69
2020/12/14 11:42:47;;;;;;;14.25;8.30;;;7.70;99.90;;;;;;4958829;28;20039;-70
2020/12/14 11:45:13;;;;;;;12.82;7.30;;;7.60;99.90;;;;;;4943259;29;20039;-70
2020/12/14 11:47:39;;;;;;;13.38;7.40;;;7.60;99.90;;;;;;4944102;29;20098;-70
2020/12/14 11:50:06;;;;;;;14.43;7.68;;;7.50;99.90;;;;;;4944073;28;20042;-70
2020/12/14 11:52:32;;;;;;;15.23;8.10;;;7.50;99.90;;;;;;4943636;28;20035;-70
2020/12/14 11:54:58;;;;;;;13.02;7.35;;;7.70;99.90;;;;;;4942855;28;20936;-70
2020/12/14 11:57:23;;;;;;;14.13;7.75;;;7.80;99.90;;;;;;4943639;28;20043;-70
2020/12/14 11:59:49;;;;;;;14.50;7.68;;;7.70;99.90;;;;;;4958726;28;20058;-70
2020/12/14 12:02:15;;;;;;;13.43;8.55;;;7.80;99.90;;;;;;4943716;29;20065;-71
2020/12/14 12:04:42;;;;;;;14.52;7.75;;;7.70;99.90;;;;;;4958696;28;20031;-69
2020/12/14 12:07:08;;;;;;;14.40;7.90;;;7.70;99.90;;;;;;4942947;28;20042;-69
2020/12/14 12:09:36;;;;;;;12.15;7.05;;;7.70;99.90;;;;;;4943279;28;20412;-69
2020/12/14 12:12:03;;;;;;;12.98;7.43;;;7.80;99.90;;;;;;4943974;28;20634;-70
2020/12/14 12:14:28;;;;;;;12.68;7.03;;;7.80;99.90;;;;;;4943550;29;20035;-69
2020/12/14 12:16:54;;;;;;;13.48;7.05;;;7.90;99.90;;;;;;4941715;28;20034;-69
2020/12/14 12:19:20;;;;;;;10.70;6.63;;;7.90;99.90;;;;;;4943119;28;20073;-69
2020/12/14 12:21:49;;;;;;;14.07;7.22;;;7.90;99.90;;;;;;4958085;28;20114;-70
2020/12/14 12:24:15;;;;;;;13.73;7.13;;;7.90;99.90;;;;;;4943496;29;20070;-69
2020/12/14 12:26:41;;;;;;;14.35;6.78;;;7.90;99.90;;;;;;4942502;29;20175;-69
2020/12/14 12:29:06;;;;;;;14.52;6.85;;;7.90;99.90;;;;;;4943221;28;20054;-69
2020/12/14 12:31:32;;;;;;;14.88;6.72;;;7.90;99.90;;;;;;4943156;29;20038;-69
2020/12/14 12:33:58;;;;;;;9.25;5.72;;;7.90;99.90;;;;;;4957739;28;20125;-70
2020/12/14 12:36:24;;;;;;;11.50;6.60;;;8.00;99.90;;;;;;4942539;28;20028;-70
2020/12/14 12:38:49;;;;;;;9.20;5.65;;;8.00;99.90;;;;;;4943046;28;20047;-70